Lewes, Delaware
Current Conditions -  °F | °C
As of 4:54 AM on Wednesday 22 Oct 2014 (Local Time) from KGED Reporting Station
Haze Haze  
Wind Chill: 55°   Ceiling: 300
Heat Index: 55°   Visibility: 3mi
Dew Point: 54°   Wind: 7mph
Humidity: 96%   Direction: 340°NNW
Pressure: 29.79"   Gusts: NA
Location:  38.77°N, 75.14°W
Report Text: KGED 220854Z AUTO 34006KT 3SM BR OVC003 13/12 A2979 RMK AO2 SLP088 T01280122 56006
Loading
Personal Weather Stations






























Interactive Weather Map
Tropical Storm Tracking
New forecast layout! Learn more

10-Day Weather Forecast

Advertisements
Track Severe Weather on mobile